Gent, Belgium

8:03 AM CEST on July 26, 2016 (GMT +0200)
Brussels National | | Change Station

Elev 190 ft 50.90 °N, 4.53 °E | Updated 13 minutes ago

Clear
Clear
61 °F
Feels Like 61 °F
N
4
Wind Variable Wind from WSW

Today
High -- | Low -- °F
--% Chance of Precip.
Yesterday
High -- | Low -- °F
Precip. -- in
Pressure 30.15 in
Visibility -9999.0 miles
Clouds
Dew Point 54 °F
Humidity 77%
Rainfall 0.00 in
Snow Depth Not available.
6:02 AM 9:39 PM
Waning Gibbous, 58% visible
METAR EBBR 260550Z 25003KT CAVOK 16/12 Q1021 NOSIG
Pressure 30.15 in
Visibility -9999.0 miles
Clouds
Dew Point 54 °F
Humidity 77%
Rainfall 0.00 in
Snow Depth Not available.
6:02 AM 9:39 PM
Waning Gibbous, 58% visible
METAR EBBR 260550Z 25003KT CAVOK 16/12 Q1021 NOSIG

10-Day Weather Forecast

×

Almanac

Astronomy

Jul. 26, 2016 Rise Set
Actual Time
Civil Twilight
Nautical Twilight
Astronomical Twilight
Moon
Length of Visible Light
Length of Day
Tomorrow will be .
, % of the Moon is Illuminated

Today's Extremes

Country Highs Country Lows

Community

WunderPhotos

Upload Photos

1,927,547 photos uploaded!

WunderBlog® & News

Nearby

Air Quality

  Air Quality AQ Index Pollutant
Not available.

Snow Depth

Station Depth Elevation

Earthquake Activity

City Distance Mag. Time & Date
Minimum magnitude displayed is 2.5.

Coastal Water Temperatures

Place Temperature

Stations

Nearby Weather Stations

Station Location Temp. Windchill Dew Point Humidity Wind Precip. Elev Updated Type